Terminal Aerodrome Forecast
Issued by NWS Jackson, KY

Home | Current Version | Previous Version | Text Only | Print | Product List | Glossary On
Versions: 1 2 3 4 5 6 7 8 9 10 11 12 13 14
000
FTUS43 KJKL 262338
TAFLOZ
TAF
KLOZ 262338Z 2700/2724 36008KT 5SM -RA BR OVC014
     FM270500 35005KT P6SM OVC008
     FM271100 34005KT 6SM BR SCT010 BKN012
     FM271300 34005KT P6SM FEW020 SCT250
     FM271800 32003KT P6SM VCSH BKN050=

USA.gov is the U.S. government's official web portal to all federal, state and local government web resources and services.